sensor_id;sensor_type;location;lat;lon;timestamp;P1;durP1;ratioP1;P2;durP2;ratioP2
3922;SDS011;1976;51.694;6.256;2022-10-04T00:01:59;19.33;;;10.63;;
3922;SDS011;1976;51.694;6.256;2022-10-04T00:04:47;22.83;;;8.63;;
3922;SDS011;1976;51.694;6.256;2022-10-04T00:07:22;30.57;;;9.30;;
3922;SDS011;1976;51.694;6.256;2022-10-04T00:09:51;24.90;;;9.97;;
3922;SDS011;1976;51.694;6.256;2022-10-04T00:14:50;12.93;;;8.40;;
3922;SDS011;1976;51.694;6.256;2022-10-04T00:17:21;19.63;;;9.40;;
3922;SDS011;1976;51.694;6.256;2022-10-04T00:19:50;20.63;;;9.40;;
3922;SDS011;1976;51.694;6.256;2022-10-04T00:22:19;17.03;;;9.17;;
3922;SDS011;1976;51.694;6.256;2022-10-04T00:27:38;15.30;;;10.03;;
3922;SDS011;1976;51.694;6.256;2022-10-04T00:30:24;15.77;;;9.07;;
3922;SDS011;1976;51.694;6.256;2022-10-04T00:32:59;24.27;;;9.97;;
3922;SDS011;1976;51.694;6.256;2022-10-04T00:37:56;11.80;;;8.50;;
3922;SDS011;1976;51.694;6.256;2022-10-04T00:40:33;14.23;;;9.03;;
3922;SDS011;1976;51.694;6.256;2022-10-04T00:43:12;21.13;;;9.07;;
3922;SDS011;1976;51.694;6.256;2022-10-04T00:45:57;10.60;;;7.97;;
3922;SDS011;1976;51.694;6.256;2022-10-04T00:51:06;19.23;;;7.57;;
3922;SDS011;1976;51.694;6.256;2022-10-04T00:53:50;9.37;;;7.43;;
3922;SDS011;1976;51.694;6.256;2022-10-04T00:56:32;14.60;;;7.00;;
3922;SDS011;1976;51.694;6.256;2022-10-04T00:59:14;10.63;;;6.37;;
3922;SDS011;1976;51.694;6.256;2022-10-04T01:01:50;17.03;;;7.60;;
3922;SDS011;1976;51.694;6.256;2022-10-04T01:04:27;13.47;;;7.60;;
3922;SDS011;1976;51.694;6.256;2022-10-04T01:07:32;11.33;;;7.40;;
3922;SDS011;1976;51.694;6.256;2022-10-04T01:10:14;17.23;;;8.47;;
3922;SDS011;1976;51.694;6.256;2022-10-04T01:12:51;19.87;;;7.73;;
3922;SDS011;1976;51.694;6.256;2022-10-04T01:20:59;15.53;;;7.07;;
3922;SDS011;1976;51.694;6.256;2022-10-04T01:26:00;13.67;;;6.60;;
3922;SDS011;1976;51.694;6.256;2022-10-04T01:28:29;17.47;;;7.90;;
3922;SDS011;1976;51.694;6.256;2022-10-04T01:30:55;11.73;;;8.03;;
3922;SDS011;1976;51.694;6.256;2022-10-04T01:33:20;13.80;;;7.27;;
3922;SDS011;1976;51.694;6.256;2022-10-04T01:35:46;12.80;;;6.87;;
3922;SDS011;1976;51.694;6.256;2022-10-04T01:38:12;10.67;;;6.53;;
3922;SDS011;1976;51.694;6.256;2022-10-04T01:40:43;12.47;;;6.90;;
3922;SDS011;1976;51.694;6.256;2022-10-04T01:43:16;13.13;;;8.03;;
3922;SDS011;1976;51.694;6.256;2022-10-04T01:45:56;8.63;;;7.10;;
3922;SDS011;1976;51.694;6.256;2022-10-04T01:48:43;9.47;;;6.40;;
3922;SDS011;1976;51.694;6.256;2022-10-04T01:51:21;13.67;;;7.67;;
3922;SDS011;1976;51.694;6.256;2022-10-04T01:56:23;8.23;;;6.80;;
3922;SDS011;1976;51.694;6.256;2022-10-04T01:58:56;20.80;;;8.00;;
3922;SDS011;1976;51.694;6.256;2022-10-04T02:01:45;12.20;;;7.97;;
3922;SDS011;1976;51.694;6.256;2022-10-04T02:04:15;9.83;;;6.80;;
3922;SDS011;1976;51.694;6.256;2022-10-04T02:06:42;9.70;;;7.07;;
3922;SDS011;1976;51.694;6.256;2022-10-04T02:09:11;16.33;;;7.30;;
3922;SDS011;1976;51.694;6.256;2022-10-04T02:11:45;11.63;;;7.00;;
3922;SDS011;1976;51.694;6.256;2022-10-04T02:14:18;13.73;;;7.37;;
3922;SDS011;1976;51.694;6.256;2022-10-04T02:16:47;11.77;;;7.30;;
3922;SDS011;1976;51.694;6.256;2022-10-04T02:19:16;22.17;;;7.63;;
3922;SDS011;1976;51.694;6.256;2022-10-04T02:21:43;19.97;;;8.50;;
3922;SDS011;1976;51.694;6.256;2022-10-04T02:24:10;14.77;;;6.70;;
3922;SDS011;1976;51.694;6.256;2022-10-04T02:26:37;14.90;;;7.60;;
3922;SDS011;1976;51.694;6.256;2022-10-04T02:29:03;8.50;;;6.43;;
3922;SDS011;1976;51.694;6.256;2022-10-04T02:31:29;14.13;;;6.70;;
3922;SDS011;1976;51.694;6.256;2022-10-04T02:34:13;8.87;;;6.60;;
3922;SDS011;1976;51.694;6.256;2022-10-04T02:36:42;12.20;;;6.90;;
3922;SDS011;1976;51.694;6.256;2022-10-04T02:39:16;11.80;;;6.43;;
3922;SDS011;1976;51.694;6.256;2022-10-04T02:41:53;23.93;;;7.57;;
3922;SDS011;1976;51.694;6.256;2022-10-04T02:45:04;15.03;;;7.30;;
3922;SDS011;1976;51.694;6.256;2022-10-04T02:47:25;11.27;;;6.43;;
3922;SDS011;1976;51.694;6.256;2022-10-04T02:49:57;16.07;;;6.73;;
3922;SDS011;1976;51.694;6.256;2022-10-04T02:52:43;9.13;;;6.87;;
3922;SDS011;1976;51.694;6.256;2022-10-04T02:55:19;13.03;;;6.70;;
3922;SDS011;1976;51.694;6.256;2022-10-04T02:57:48;14.40;;;7.17;;
3922;SDS011;1976;51.694;6.256;2022-10-04T03:00:18;10.93;;;7.00;;
3922;SDS011;1976;51.694;6.256;2022-10-04T03:05:33;12.10;;;6.80;;
3922;SDS011;1976;51.694;6.256;2022-10-04T03:08:00;10.40;;;6.90;;
3922;SDS011;1976;51.694;6.256;2022-10-04T03:10:25;16.80;;;7.90;;
3922;SDS011;1976;51.694;6.256;2022-10-04T03:12:51;10.23;;;7.07;;
3922;SDS011;1976;51.694;6.256;2022-10-04T03:15:17;14.03;;;5.77;;
3922;SDS011;1976;51.694;6.256;2022-10-04T03:17:43;11.43;;;7.40;;
3922;SDS011;1976;51.694;6.256;2022-10-04T03:20:10;10.83;;;7.23;;
3922;SDS011;1976;51.694;6.256;2022-10-04T03:22:40;9.67;;;6.67;;
3922;SDS011;1976;51.694;6.256;2022-10-04T03:25:34;11.43;;;6.80;;
3922;SDS011;1976;51.694;6.256;2022-10-04T03:28:02;11.43;;;7.10;;
3922;SDS011;1976;51.694;6.256;2022-10-04T03:30:29;20.87;;;6.60;;
3922;SDS011;1976;51.694;6.256;2022-10-04T03:32:56;6.40;;;5.43;;
3922;SDS011;1976;51.694;6.256;2022-10-04T03:35:31;16.67;;;7.07;;
3922;SDS011;1976;51.694;6.256;2022-10-04T03:38:00;16.83;;;6.77;;
3922;SDS011;1976;51.694;6.256;2022-10-04T03:40:31;12.23;;;7.40;;
3922;SDS011;1976;51.694;6.256;2022-10-04T03:42:58;11.00;;;7.33;;
3922;SDS011;1976;51.694;6.256;2022-10-04T03:45:26;19.30;;;7.50;;
3922;SDS011;1976;51.694;6.256;2022-10-04T03:47:53;12.67;;;7.20;;
3922;SDS011;1976;51.694;6.256;2022-10-04T03:50:30;15.60;;;7.70;;
3922;SDS011;1976;51.694;6.256;2022-10-04T03:53:02;17.10;;;7.57;;
3922;SDS011;1976;51.694;6.256;2022-10-04T03:55:35;13.97;;;7.00;;
3922;SDS011;1976;51.694;6.256;2022-10-04T03:58:07;11.30;;;7.10;;
3922;SDS011;1976;51.694;6.256;2022-10-04T04:00:45;12.37;;;6.73;;
3922;SDS011;1976;51.694;6.256;2022-10-04T04:03:18;15.53;;;6.63;;
3922;SDS011;1976;51.694;6.256;2022-10-04T04:05:49;9.17;;;6.50;;
3922;SDS011;1976;51.694;6.256;2022-10-04T04:10:49;9.77;;;6.40;;
3922;SDS011;1976;51.694;6.256;2022-10-04T04:15:53;10.83;;;7.07;;
3922;SDS011;1976;51.694;6.256;2022-10-04T04:18:23;12.73;;;6.50;;
3922;SDS011;1976;51.694;6.256;2022-10-04T04:20:54;14.10;;;7.43;;
3922;SDS011;1976;51.694;6.256;2022-10-04T04:23:36;11.77;;;6.87;;
3922;SDS011;1976;51.694;6.256;2022-10-04T04:28:55;14.50;;;6.93;;
3922;SDS011;1976;51.694;6.256;2022-10-04T04:31:30;7.30;;;6.27;;
3922;SDS011;1976;51.694;6.256;2022-10-04T04:34:14;8.03;;;6.30;;
3922;SDS011;1976;51.694;6.256;2022-10-04T04:36:45;9.90;;;6.10;;
3922;SDS011;1976;51.694;6.256;2022-10-04T04:39:21;12.80;;;6.27;;
3922;SDS011;1976;51.694;6.256;2022-10-04T04:44:59;10.40;;;6.67;;
3922;SDS011;1976;51.694;6.256;2022-10-04T04:47:30;15.43;;;6.83;;
3922;SDS011;1976;51.694;6.256;2022-10-04T04:50:33;10.83;;;6.47;;
3922;SDS011;1976;51.694;6.256;2022-10-04T04:52:59;18.83;;;6.63;;
3922;SDS011;1976;51.694;6.256;2022-10-04T04:55:38;16.53;;;7.57;;
3922;SDS011;1976;51.694;6.256;2022-10-04T04:58:06;12.93;;;6.37;;
3922;SDS011;1976;51.694;6.256;2022-10-04T05:00:36;11.27;;;6.90;;
3922;SDS011;1976;51.694;6.256;2022-10-04T05:03:14;9.30;;;6.00;;
3922;SDS011;1976;51.694;6.256;2022-10-04T05:05:43;17.80;;;6.57;;
3922;SDS011;1976;51.694;6.256;2022-10-04T05:08:23;9.80;;;6.67;;
3922;SDS011;1976;51.694;6.256;2022-10-04T05:11:04;10.33;;;6.07;;
3922;SDS011;1976;51.694;6.256;2022-10-04T05:16:13;18.97;;;6.93;;
3922;SDS011;1976;51.694;6.256;2022-10-04T05:18:43;11.80;;;6.23;;
3922;SDS011;1976;51.694;6.256;2022-10-04T05:21:15;13.70;;;6.43;;
3922;SDS011;1976;51.694;6.256;2022-10-04T05:23:52;22.33;;;5.47;;
3922;SDS011;1976;51.694;6.256;2022-10-04T05:26:28;13.37;;;6.90;;
3922;SDS011;1976;51.694;6.256;2022-10-04T05:28:55;14.30;;;6.13;;
3922;SDS011;1976;51.694;6.256;2022-10-04T05:31:43;19.03;;;6.37;;
3922;SDS011;1976;51.694;6.256;2022-10-04T05:34:30;11.50;;;6.70;;
3922;SDS011;1976;51.694;6.256;2022-10-04T05:42:40;7.93;;;6.00;;
3922;SDS011;1976;51.694;6.256;2022-10-04T05:47:49;12.07;;;6.33;;
3922;SDS011;1976;51.694;6.256;2022-10-04T05:50:36;27.17;;;6.33;;
3922;SDS011;1976;51.694;6.256;2022-10-04T06:02:04;18.97;;;6.10;;
3922;SDS011;1976;51.694;6.256;2022-10-04T06:08:04;7.23;;;5.43;;
3922;SDS011;1976;51.694;6.256;2022-10-04T06:10:52;10.30;;;6.80;;
3922;SDS011;1976;51.694;6.256;2022-10-04T06:17:28;14.57;;;5.37;;
3922;SDS011;1976;51.694;6.256;2022-10-04T06:19:31;10.83;;;7.90;;
3922;SDS011;1976;51.694;6.256;2022-10-04T06:22:19;12.13;;;6.13;;
3922;SDS011;1976;51.694;6.256;2022-10-04T06:24:50;8.17;;;5.37;;
3922;SDS011;1976;51.694;6.256;2022-10-04T06:30:15;9.27;;;4.90;;
3922;SDS011;1976;51.694;6.256;2022-10-04T06:35:39;11.40;;;5.73;;
3922;SDS011;1976;51.694;6.256;2022-10-04T06:44:47;7.50;;;4.90;;
3922;SDS011;1976;51.694;6.256;2022-10-04T06:50:43;14.60;;;5.37;;
3922;SDS011;1976;51.694;6.256;2022-10-04T06:53:25;8.60;;;6.20;;
3922;SDS011;1976;51.694;6.256;2022-10-04T07:02:38;6.50;;;3.77;;
3922;SDS011;1976;51.694;6.256;2022-10-04T07:05:14;14.80;;;5.50;;
3922;SDS011;1976;51.694;6.256;2022-10-04T07:07:47;8.50;;;4.97;;
3922;SDS011;1976;51.694;6.256;2022-10-04T07:15:59;7.00;;;4.90;;
3922;SDS011;1976;51.694;6.256;2022-10-04T07:18:24;10.70;;;5.70;;
3922;SDS011;1976;51.694;6.256;2022-10-04T07:21:03;13.53;;;4.90;;
3922;SDS011;1976;51.694;6.256;2022-10-04T07:23:35;19.90;;;6.23;;
3922;SDS011;1976;51.694;6.256;2022-10-04T07:26:19;9.20;;;6.43;;
3922;SDS011;1976;51.694;6.256;2022-10-04T07:28:53;10.97;;;5.70;;
3922;SDS011;1976;51.694;6.256;2022-10-04T07:31:42;4.77;;;4.23;;
3922;SDS011;1976;51.694;6.256;2022-10-04T07:34:13;5.70;;;4.30;;
3922;SDS011;1976;51.694;6.256;2022-10-04T07:36:49;9.30;;;4.70;;
3922;SDS011;1976;51.694;6.256;2022-10-04T07:39:32;15.67;;;4.20;;
3922;SDS011;1976;51.694;6.256;2022-10-04T07:44:57;7.67;;;4.77;;
3922;SDS011;1976;51.694;6.256;2022-10-04T07:47:30;8.47;;;4.80;;
3922;SDS011;1976;51.694;6.256;2022-10-04T07:49:56;13.03;;;5.40;;
3922;SDS011;1976;51.694;6.256;2022-10-04T08:03:41;11.80;;;4.80;;
3922;SDS011;1976;51.694;6.256;2022-10-04T08:06:35;9.50;;;4.30;;
3922;SDS011;1976;51.694;6.256;2022-10-04T08:25:08;3.17;;;2.87;;
3922;SDS011;1976;51.694;6.256;2022-10-04T08:27:38;10.70;;;4.90;;
3922;SDS011;1976;51.694;6.256;2022-10-04T08:30:27;8.33;;;4.03;;
3922;SDS011;1976;51.694;6.256;2022-10-04T08:33:07;10.27;;;4.93;;
3922;SDS011;1976;51.694;6.256;2022-10-04T08:35:54;6.63;;;3.67;;
3922;SDS011;1976;51.694;6.256;2022-10-04T08:38:33;12.90;;;4.90;;
3922;SDS011;1976;51.694;6.256;2022-10-04T08:57:57;7.80;;;3.87;;
3922;SDS011;1976;51.694;6.256;2022-10-04T09:12:34;7.67;;;4.17;;
3922;SDS011;1976;51.694;6.256;2022-10-04T09:15:24;15.67;;;5.20;;
3922;SDS011;1976;51.694;6.256;2022-10-04T09:23:34;7.80;;;3.50;;
3922;SDS011;1976;51.694;6.256;2022-10-04T09:26:35;12.60;;;4.67;;
3922;SDS011;1976;51.694;6.256;2022-10-04T09:40:02;8.90;;;4.30;;
3922;SDS011;1976;51.694;6.256;2022-10-04T09:48:22;5.10;;;3.17;;
3922;SDS011;1976;51.694;6.256;2022-10-04T09:57:04;8.83;;;4.10;;
3922;SDS011;1976;51.694;6.256;2022-10-04T09:59:55;7.17;;;3.63;;
3922;SDS011;1976;51.694;6.256;2022-10-04T10:13:25;7.13;;;4.13;;
3922;SDS011;1976;51.694;6.256;2022-10-04T10:19:02;7.53;;;4.10;;
3922;SDS011;1976;51.694;6.256;2022-10-04T10:21:50;6.27;;;3.83;;
3922;SDS011;1976;51.694;6.256;2022-10-04T10:27:06;12.93;;;4.77;;
3922;SDS011;1976;51.694;6.256;2022-10-04T10:29:43;6.63;;;3.60;;
3922;SDS011;1976;51.694;6.256;2022-10-04T10:32:38;4.60;;;2.20;;
3922;SDS011;1976;51.694;6.256;2022-10-04T10:35:26;6.70;;;3.73;;
3922;SDS011;1976;51.694;6.256;2022-10-04T10:47:10;6.90;;;3.87;;
3922;SDS011;1976;51.694;6.256;2022-10-04T10:53:08;4.80;;;3.33;;
3922;SDS011;1976;51.694;6.256;2022-10-04T11:04:16;3.53;;;3.23;;
3922;SDS011;1976;51.694;6.256;2022-10-04T11:07:08;6.10;;;3.93;;
3922;SDS011;1976;51.694;6.256;2022-10-04T11:29:25;4.47;;;3.30;;
3922;SDS011;1976;51.694;6.256;2022-10-04T11:32:24;7.03;;;2.67;;
3922;SDS011;1976;51.694;6.256;2022-10-04T11:37:56;5.60;;;2.70;;
3922;SDS011;1976;51.694;6.256;2022-10-04T11:46:10;5.20;;;3.40;;
3922;SDS011;1976;51.694;6.256;2022-10-04T11:57:01;11.43;;;4.33;;
3922;SDS011;1976;51.694;6.256;2022-10-04T12:05:51;12.17;;;3.20;;
3922;SDS011;1976;51.694;6.256;2022-10-04T12:16:35;3.67;;;2.10;;
3922;SDS011;1976;51.694;6.256;2022-10-04T12:19:24;2.33;;;1.80;;
3922;SDS011;1976;51.694;6.256;2022-10-04T12:31:18;9.47;;;2.53;;
3922;SDS011;1976;51.694;6.256;2022-10-04T12:50:05;7.90;;;3.23;;
3922;SDS011;1976;51.694;6.256;2022-10-04T12:53:00;1.57;;;1.47;;
3922;SDS011;1976;51.694;6.256;2022-10-04T12:58:27;3.70;;;2.30;;
3922;SDS011;1976;51.694;6.256;2022-10-04T13:01:04;9.83;;;2.90;;
3922;SDS011;1976;51.694;6.256;2022-10-04T13:06:32;3.93;;;1.83;;
3922;SDS011;1976;51.694;6.256;2022-10-04T13:09:42;1.37;;;1.27;;
3922;SDS011;1976;51.694;6.256;2022-10-04T13:36:44;9.00;;;2.83;;
3922;SDS011;1976;51.694;6.256;2022-10-04T13:41:54;4.13;;;2.23;;
3922;SDS011;1976;51.694;6.256;2022-10-04T13:44:34;6.20;;;2.83;;
3922;SDS011;1976;51.694;6.256;2022-10-04T13:55:36;12.00;;;3.00;;
3922;SDS011;1976;51.694;6.256;2022-10-04T14:01:27;13.60;;;3.30;;
3922;SDS011;1976;51.694;6.256;2022-10-04T14:07:14;15.83;;;3.37;;
3922;SDS011;1976;51.694;6.256;2022-10-04T14:10:02;4.40;;;2.87;;
3922;SDS011;1976;51.694;6.256;2022-10-04T14:12:39;1.87;;;1.67;;
3922;SDS011;1976;51.694;6.256;2022-10-04T14:15:32;2.80;;;2.40;;
3922;SDS011;1976;51.694;6.256;2022-10-04T14:29:59;6.60;;;3.60;;
3922;SDS011;1976;51.694;6.256;2022-10-04T14:46:39;3.13;;;2.20;;
3922;SDS011;1976;51.694;6.256;2022-10-04T14:49:50;3.10;;;2.30;;
3922;SDS011;1976;51.694;6.256;2022-10-04T14:52:37;5.43;;;3.30;;
3922;SDS011;1976;51.694;6.256;2022-10-04T14:55:20;7.50;;;2.40;;
3922;SDS011;1976;51.694;6.256;2022-10-04T15:03:56;8.47;;;3.70;;
3922;SDS011;1976;51.694;6.256;2022-10-04T15:06:58;11.60;;;3.07;;
3922;SDS011;1976;51.694;6.256;2022-10-04T15:12:37;3.03;;;2.20;;
3922;SDS011;1976;51.694;6.256;2022-10-04T15:17:54;10.60;;;4.07;;
3922;SDS011;1976;51.694;6.256;2022-10-04T15:24:21;2.70;;;2.27;;
3922;SDS011;1976;51.694;6.256;2022-10-04T15:41:18;8.73;;;2.50;;
3922;SDS011;1976;51.694;6.256;2022-10-04T15:44:13;4.60;;;2.70;;
3922;SDS011;1976;51.694;6.256;2022-10-04T15:49:45;6.33;;;2.80;;
3922;SDS011;1976;51.694;6.256;2022-10-04T15:55:29;10.33;;;2.30;;
3922;SDS011;1976;51.694;6.256;2022-10-04T15:58:26;2.03;;;1.83;;
3922;SDS011;1976;51.694;6.256;2022-10-04T16:04:18;5.47;;;2.60;;
3922;SDS011;1976;51.694;6.256;2022-10-04T16:09:39;11.60;;;3.47;;
3922;SDS011;1976;51.694;6.256;2022-10-04T16:12:28;5.10;;;3.30;;
3922;SDS011;1976;51.694;6.256;2022-10-04T16:15:42;7.07;;;3.00;;
3922;SDS011;1976;51.694;6.256;2022-10-04T16:24:25;5.13;;;3.10;;
3922;SDS011;1976;51.694;6.256;2022-10-04T16:31:51;10.20;;;3.40;;
3922;SDS011;1976;51.694;6.256;2022-10-04T16:34:35;9.53;;;3.33;;
3922;SDS011;1976;51.694;6.256;2022-10-04T16:47:56;7.60;;;3.60;;
3922;SDS011;1976;51.694;6.256;2022-10-04T16:56:13;5.27;;;3.67;;
3922;SDS011;1976;51.694;6.256;2022-10-04T17:06:49;8.67;;;3.57;;
3922;SDS011;1976;51.694;6.256;2022-10-04T17:09:34;6.43;;;3.70;;
3922;SDS011;1976;51.694;6.256;2022-10-04T17:17:40;7.57;;;3.30;;
3922;SDS011;1976;51.694;6.256;2022-10-04T17:25:32;4.13;;;3.73;;
3922;SDS011;1976;51.694;6.256;2022-10-04T17:31:16;9.53;;;4.47;;
3922;SDS011;1976;51.694;6.256;2022-10-04T17:47:35;6.57;;;4.17;;
3922;SDS011;1976;51.694;6.256;2022-10-04T17:50:40;12.03;;;4.27;;
3922;SDS011;1976;51.694;6.256;2022-10-04T17:53:32;14.83;;;4.63;;
3922;SDS011;1976;51.694;6.256;2022-10-04T17:59:46;7.40;;;4.27;;
3922;SDS011;1976;51.694;6.256;2022-10-04T18:02:19;11.17;;;5.23;;
3922;SDS011;1976;51.694;6.256;2022-10-04T18:05:03;14.00;;;4.97;;
3922;SDS011;1976;51.694;6.256;2022-10-04T18:07:44;15.70;;;5.47;;
3922;SDS011;1976;51.694;6.256;2022-10-04T18:10:30;7.73;;;4.37;;
3922;SDS011;1976;51.694;6.256;2022-10-04T18:19:31;7.07;;;4.87;;
3922;SDS011;1976;51.694;6.256;2022-10-04T18:22:17;12.40;;;5.17;;
3922;SDS011;1976;51.694;6.256;2022-10-04T18:24:48;4.83;;;3.40;;
3922;SDS011;1976;51.694;6.256;2022-10-04T18:27:51;8.47;;;4.40;;
3922;SDS011;1976;51.694;6.256;2022-10-04T18:30:25;9.53;;;5.43;;
3922;SDS011;1976;51.694;6.256;2022-10-04T18:32:51;5.90;;;4.63;;
3922;SDS011;1976;51.694;6.256;2022-10-04T18:37:56;9.67;;;4.80;;
3922;SDS011;1976;51.694;6.256;2022-10-04T18:40:54;7.20;;;5.20;;
3922;SDS011;1976;51.694;6.256;2022-10-04T18:43:29;10.67;;;5.60;;
3922;SDS011;1976;51.694;6.256;2022-10-04T18:45:59;9.27;;;5.63;;
3922;SDS011;1976;51.694;6.256;2022-10-04T18:48:35;6.73;;;4.90;;
3922;SDS011;1976;51.694;6.256;2022-10-04T18:56:27;11.50;;;4.47;;
3922;SDS011;1976;51.694;6.256;2022-10-04T18:59:03;9.00;;;5.03;;
3922;SDS011;1976;51.694;6.256;2022-10-04T19:07:53;10.60;;;5.90;;
3922;SDS011;1976;51.694;6.256;2022-10-04T19:10:39;14.90;;;6.00;;
3922;SDS011;1976;51.694;6.256;2022-10-04T19:13:21;13.70;;;6.20;;
3922;SDS011;1976;51.694;6.256;2022-10-04T19:18:54;9.50;;;6.07;;
3922;SDS011;1976;51.694;6.256;2022-10-04T19:30:01;13.40;;;5.20;;
3922;SDS011;1976;51.694;6.256;2022-10-04T19:39:02;9.73;;;5.80;;
3922;SDS011;1976;51.694;6.256;2022-10-04T19:49:51;10.37;;;5.50;;
3922;SDS011;1976;51.694;6.256;2022-10-04T19:55:20;18.27;;;6.30;;
3922;SDS011;1976;51.694;6.256;2022-10-04T19:58:03;13.63;;;5.70;;
3922;SDS011;1976;51.694;6.256;2022-10-04T20:00:51;6.10;;;5.30;;
3922;SDS011;1976;51.694;6.256;2022-10-04T20:03:17;10.57;;;6.00;;
3922;SDS011;1976;51.694;6.256;2022-10-04T20:05:47;19.40;;;5.87;;
3922;SDS011;1976;51.694;6.256;2022-10-04T20:11:14;15.50;;;6.50;;
3922;SDS011;1976;51.694;6.256;2022-10-04T20:29:59;8.97;;;5.27;;
3922;SDS011;1976;51.694;6.256;2022-10-04T20:34:54;14.40;;;6.30;;
3922;SDS011;1976;51.694;6.256;2022-10-04T20:38:12;11.70;;;5.40;;
3922;SDS011;1976;51.694;6.256;2022-10-04T20:45:45;9.90;;;5.33;;
3922;SDS011;1976;51.694;6.256;2022-10-04T20:48:15;13.83;;;7.23;;
3922;SDS011;1976;51.694;6.256;2022-10-04T20:50:49;9.87;;;4.77;;
3922;SDS011;1976;51.694;6.256;2022-10-04T20:55:45;9.37;;;6.47;;
3922;SDS011;1976;51.694;6.256;2022-10-04T20:58:24;12.50;;;5.93;;
3922;SDS011;1976;51.694;6.256;2022-10-04T21:00:57;11.87;;;5.33;;
3922;SDS011;1976;51.694;6.256;2022-10-04T21:03:26;11.10;;;6.40;;
3922;SDS011;1976;51.694;6.256;2022-10-04T21:06:05;4.60;;;3.40;;
3922;SDS011;1976;51.694;6.256;2022-10-04T21:08:32;13.70;;;5.27;;
3922;SDS011;1976;51.694;6.256;2022-10-04T21:11:06;12.00;;;5.87;;
3922;SDS011;1976;51.694;6.256;2022-10-04T21:16:36;7.80;;;5.73;;
3922;SDS011;1976;51.694;6.256;2022-10-04T21:24:41;12.80;;;5.80;;
3922;SDS011;1976;51.694;6.256;2022-10-04T21:27:08;10.60;;;5.67;;
3922;SDS011;1976;51.694;6.256;2022-10-04T21:29:35;9.07;;;5.20;;
3922;SDS011;1976;51.694;6.256;2022-10-04T21:32:01;9.63;;;6.27;;
3922;SDS011;1976;51.694;6.256;2022-10-04T21:34:27;15.40;;;5.33;;
3922;SDS011;1976;51.694;6.256;2022-10-04T21:36:52;12.53;;;6.00;;
3922;SDS011;1976;51.694;6.256;2022-10-04T21:39:18;9.87;;;5.90;;
3922;SDS011;1976;51.694;6.256;2022-10-04T21:41:44;6.80;;;4.80;;
3922;SDS011;1976;51.694;6.256;2022-10-04T21:44:10;6.10;;;4.70;;
3922;SDS011;1976;51.694;6.256;2022-10-04T21:46:36;10.60;;;4.70;;
3922;SDS011;1976;51.694;6.256;2022-10-04T21:49:04;14.50;;;5.90;;
3922;SDS011;1976;51.694;6.256;2022-10-04T21:51:30;13.30;;;5.50;;
3922;SDS011;1976;51.694;6.256;2022-10-04T21:53:59;15.80;;;5.47;;
3922;SDS011;1976;51.694;6.256;2022-10-04T21:56:28;10.87;;;5.60;;
3922;SDS011;1976;51.694;6.256;2022-10-04T21:58:54;16.17;;;7.70;;
3922;SDS011;1976;51.694;6.256;2022-10-04T22:01:19;18.20;;;7.70;;
3922;SDS011;1976;51.694;6.256;2022-10-04T22:03:45;14.70;;;7.30;;
3922;SDS011;1976;51.694;6.256;2022-10-04T22:06:10;11.67;;;6.93;;
3922;SDS011;1976;51.694;6.256;2022-10-04T22:08:36;7.00;;;3.57;;
3922;SDS011;1976;51.694;6.256;2022-10-04T22:11:02;8.93;;;5.20;;
3922;SDS011;1976;51.694;6.256;2022-10-04T22:13:28;10.30;;;5.60;;
3922;SDS011;1976;51.694;6.256;2022-10-04T22:15:53;8.37;;;5.40;;
3922;SDS011;1976;51.694;6.256;2022-10-04T22:18:19;12.17;;;7.40;;
3922;SDS011;1976;51.694;6.256;2022-10-04T22:20:45;16.63;;;7.80;;
3922;SDS011;1976;51.694;6.256;2022-10-04T22:23:15;11.37;;;6.43;;
3922;SDS011;1976;51.694;6.256;2022-10-04T22:25:46;10.97;;;6.20;;
3922;SDS011;1976;51.694;6.256;2022-10-04T22:28:22;10.47;;;6.97;;
3922;SDS011;1976;51.694;6.256;2022-10-04T22:30:50;14.00;;;7.63;;
3922;SDS011;1976;51.694;6.256;2022-10-04T22:35:59;9.43;;;4.70;;
3922;SDS011;1976;51.694;6.256;2022-10-04T22:38:53;13.33;;;7.90;;
3922;SDS011;1976;51.694;6.256;2022-10-04T22:41:24;6.30;;;4.37;;
3922;SDS011;1976;51.694;6.256;2022-10-04T22:43:55;9.70;;;6.30;;
3922;SDS011;1976;51.694;6.256;2022-10-04T22:46:24;8.00;;;5.10;;
3922;SDS011;1976;51.694;6.256;2022-10-04T22:48:57;7.13;;;5.13;;
3922;SDS011;1976;51.694;6.256;2022-10-04T22:51:25;8.37;;;4.40;;
3922;SDS011;1976;51.694;6.256;2022-10-04T22:53:55;8.10;;;5.60;;
3922;SDS011;1976;51.694;6.256;2022-10-04T22:56:21;17.40;;;7.00;;
3922;SDS011;1976;51.694;6.256;2022-10-04T22:58:46;16.00;;;6.17;;
3922;SDS011;1976;51.694;6.256;2022-10-04T23:01:14;5.70;;;4.00;;
3922;SDS011;1976;51.694;6.256;2022-10-04T23:03:44;21.87;;;5.90;;
3922;SDS011;1976;51.694;6.256;2022-10-04T23:06:12;12.40;;;4.37;;
3922;SDS011;1976;51.694;6.256;2022-10-04T23:08:41;11.03;;;5.40;;
3922;SDS011;1976;51.694;6.256;2022-10-04T23:11:07;6.43;;;5.70;;
3922;SDS011;1976;51.694;6.256;2022-10-04T23:13:33;8.63;;;5.50;;
3922;SDS011;1976;51.694;6.256;2022-10-04T23:16:00;7.50;;;4.40;;
3922;SDS011;1976;51.694;6.256;2022-10-04T23:18:38;10.03;;;6.80;;
3922;SDS011;1976;51.694;6.256;2022-10-04T23:21:18;5.30;;;4.77;;
3922;SDS011;1976;51.694;6.256;2022-10-04T23:23:49;5.87;;;4.33;;
3922;SDS011;1976;51.694;6.256;2022-10-04T23:26:21;10.20;;;6.80;;
3922;SDS011;1976;51.694;6.256;2022-10-04T23:28:48;8.60;;;6.13;;
3922;SDS011;1976;51.694;6.256;2022-10-04T23:31:18;9.93;;;6.30;;
3922;SDS011;1976;51.694;6.256;2022-10-04T23:33:49;9.33;;;5.60;;
3922;SDS011;1976;51.694;6.256;2022-10-04T23:36:16;9.60;;;6.50;;
3922;SDS011;1976;51.694;6.256;2022-10-04T23:38:45;18.13;;;6.70;;
3922;SDS011;1976;51.694;6.256;2022-10-04T23:41:13;6.57;;;4.50;;
3922;SDS011;1976;51.694;6.256;2022-10-04T23:43:40;6.63;;;3.67;;
3922;SDS011;1976;51.694;6.256;2022-10-04T23:46:14;4.90;;;3.00;;
3922;SDS011;1976;51.694;6.256;2022-10-04T23:48:42;15.13;;;6.27;;
3922;SDS011;1976;51.694;6.256;2022-10-04T23:51:11;9.43;;;5.10;;
3922;SDS011;1976;51.694;6.256;2022-10-04T23:53:40;21.03;;;5.47;;
3922;SDS011;1976;51.694;6.256;2022-10-04T23:56:26;3.63;;;3.23;;
3922;SDS011;1976;51.694;6.256;2022-10-04T23:58:54;6.43;;;5.00;;
